createdAt,value
2022-12-15T00:00:15.074Z,-5.25
2022-12-15T00:01:15.085Z,-5.14
2022-12-15T00:02:15.065Z,-5.08
2022-12-15T00:03:15.120Z,-5.05
2022-12-15T00:04:15.024Z,-5.05
2022-12-15T00:05:15.009Z,-5.17
2022-12-15T00:06:15.071Z,-5.18
2022-12-15T00:07:14.988Z,-5.21
2022-12-15T00:08:14.974Z,-5.19
2022-12-15T00:09:16.821Z,-5.27
2022-12-15T00:10:14.955Z,-5.21
2022-12-15T00:11:14.942Z,-5.33
2022-12-15T00:12:14.927Z,-5.29
2022-12-15T00:13:14.913Z,-5.27
2022-12-15T00:14:14.901Z,-5.35
2022-12-15T00:15:14.889Z,-5.31
2022-12-15T00:16:14.979Z,-5.45
2022-12-15T00:17:14.887Z,-5.35
2022-12-15T00:18:14.852Z,-5.29
2022-12-15T00:19:14.839Z,-5.22
2022-12-15T00:20:14.826Z,-5.31
2022-12-15T00:21:14.818Z,-5.19
2022-12-15T00:22:14.804Z,-5.14
2022-12-15T00:23:14.792Z,-4.92
2022-12-15T00:24:14.777Z,-4.91
2022-12-15T00:25:14.767Z,-4.84
2022-12-15T00:26:14.753Z,-4.88
2022-12-15T00:27:14.740Z,-4.88
2022-12-15T00:28:14.732Z,-4.92
2022-12-15T00:29:14.719Z,-5.02
2022-12-15T00:30:14.704Z,-5.09
2022-12-15T00:31:14.703Z,-5.25
2022-12-15T00:32:14.681Z,-5.24
2022-12-15T00:33:14.686Z,-5.29
2022-12-15T00:34:14.655Z,-5.40
2022-12-15T00:35:14.640Z,-5.54
2022-12-15T00:36:14.628Z,-5.54
2022-12-15T00:37:14.614Z,-5.46
2022-12-15T00:38:14.604Z,-5.46
2022-12-15T00:39:14.594Z,-5.33
2022-12-15T00:40:14.583Z,-5.46
2022-12-15T00:41:14.564Z,-5.53
2022-12-15T00:42:14.554Z,-5.47
2022-12-15T00:43:14.540Z,-5.60
2022-12-15T00:44:20.338Z,-5.54
2022-12-15T00:45:14.515Z,-5.58
2022-12-15T00:46:14.620Z,-5.67
2022-12-15T00:47:14.493Z,-5.60
2022-12-15T00:48:14.480Z,-5.58
2022-12-15T00:49:14.486Z,-5.57
2022-12-15T00:50:14.456Z,-5.35
2022-12-15T00:51:14.440Z,-5.38
2022-12-15T00:52:14.429Z,-5.35
2022-12-15T00:53:14.410Z,-5.28
2022-12-15T00:54:18.061Z,-5.24
2022-12-15T00:55:14.387Z,-5.45
2022-12-15T00:56:14.377Z,-5.33
2022-12-15T00:57:14.364Z,-5.43
2022-12-15T00:58:14.358Z,-5.43
2022-12-15T00:59:14.336Z,-5.38
2022-12-15T01:00:14.327Z,-5.27
2022-12-15T01:01:14.311Z,-5.17
2022-12-15T01:02:14.401Z,-5.00
2022-12-15T01:03:14.425Z,-5.10
2022-12-15T01:04:14.375Z,-4.92
2022-12-15T01:05:14.286Z,-4.85
2022-12-15T01:06:14.249Z,-4.85
2022-12-15T01:07:14.235Z,-4.77
2022-12-15T01:08:14.229Z,-4.84
2022-12-15T01:09:14.210Z,-4.70
2022-12-15T01:10:14.207Z,-4.81
2022-12-15T01:11:14.185Z,-4.70
2022-12-15T01:12:14.177Z,-4.84
2022-12-15T01:13:14.158Z,-4.70
2022-12-15T01:14:14.155Z,-4.67
2022-12-15T01:15:14.135Z,-4.70
2022-12-15T01:16:14.207Z,-4.70
2022-12-15T01:17:14.109Z,-4.67
2022-12-15T01:18:14.100Z,-4.71
2022-12-15T01:19:14.095Z,-4.71
2022-12-15T01:20:14.075Z,-4.69
2022-12-15T01:21:14.212Z,-4.71
2022-12-15T01:22:14.050Z,-4.77
2022-12-15T01:23:14.042Z,-4.66
2022-12-15T01:24:14.023Z,-4.70
2022-12-15T01:25:14.010Z,-4.61
2022-12-15T01:26:13.998Z,-4.59
2022-12-15T01:27:13.984Z,-4.53
2022-12-15T01:28:13.974Z,-4.41
2022-12-15T01:29:13.959Z,-4.16
2022-12-15T01:30:13.954Z,-4.12
2022-12-15T01:31:13.936Z,-4.09
2022-12-15T01:32:13.923Z,-4.07
2022-12-15T01:33:13.913Z,-3.96
2022-12-15T01:34:13.900Z,-3.89
2022-12-15T01:35:13.889Z,-3.95
2022-12-15T01:36:13.878Z,-3.99
2022-12-15T01:37:13.941Z,-3.95
2022-12-15T01:38:13.852Z,-3.98
2022-12-15T01:39:13.836Z,-4.09
2022-12-15T01:40:13.823Z,-4.03
2022-12-15T01:41:13.813Z,-4.02
2022-12-15T01:42:13.799Z,-3.99
2022-12-15T01:43:13.786Z,-3.99
2022-12-15T01:44:13.775Z,-4.02
2022-12-15T01:45:13.762Z,-4.10
2022-12-15T01:46:13.855Z,-4.07
2022-12-15T01:47:13.842Z,-4.10
2022-12-15T01:48:13.723Z,-4.07
2022-12-15T01:49:13.709Z,-4.06
2022-12-15T01:50:16.324Z,-4.17
2022-12-15T01:51:16.319Z,-4.10
2022-12-15T01:52:13.675Z,-4.21
2022-12-15T01:53:16.305Z,-4.10
2022-12-15T01:56:13.628Z,-4.09
2022-12-15T01:57:13.612Z,-4.09
2022-12-15T01:58:13.600Z,-4.10
2022-12-15T01:59:13.587Z,-4.10
2022-12-15T02:00:13.576Z,-4.02
2022-12-15T02:01:13.627Z,-4.10
2022-12-15T02:02:13.746Z,-4.10
2022-12-15T02:03:13.600Z,-4.06
2022-12-15T02:04:13.529Z,-4.10
2022-12-15T02:05:13.513Z,-4.06
2022-12-15T02:06:13.502Z,-4.12
2022-12-15T02:07:13.494Z,-4.10
2022-12-15T02:08:13.476Z,-4.17
2022-12-15T02:09:13.488Z,-4.22
2022-12-15T02:10:13.456Z,-4.10
2022-12-15T02:11:13.442Z,-4.20
2022-12-15T02:12:13.427Z,-4.14
2022-12-15T02:13:13.415Z,-4.13
2022-12-15T02:14:13.403Z,-4.13
2022-12-15T02:15:13.391Z,-4.13
2022-12-15T02:16:13.429Z,-4.12
2022-12-15T02:17:13.363Z,-4.09
2022-12-15T02:18:13.353Z,-4.04
2022-12-15T02:19:13.340Z,-4.09
2022-12-15T02:20:13.333Z,-4.10
2022-12-15T02:21:13.313Z,-4.09
2022-12-15T02:22:13.305Z,-4.13
2022-12-15T02:23:13.291Z,-4.09
2022-12-15T02:24:13.277Z,-4.09
2022-12-15T02:25:13.402Z,-4.07
2022-12-15T02:26:13.253Z,-4.07
2022-12-15T02:27:13.244Z,-4.07
2022-12-15T02:28:13.229Z,-4.10
2022-12-15T02:29:13.238Z,-4.09
2022-12-15T02:30:13.213Z,-4.12
2022-12-15T02:31:13.265Z,-4.12
2022-12-15T02:32:13.182Z,-4.10
2022-12-15T02:33:13.164Z,-4.09
2022-12-15T02:34:13.155Z,-4.10
2022-12-15T02:35:13.141Z,-4.03
2022-12-15T02:36:13.133Z,-4.07
2022-12-15T02:37:13.117Z,-4.16
2022-12-15T02:38:13.119Z,-4.09
2022-12-15T02:40:00.640Z,-4.10
2022-12-15T02:41:01.085Z,-4.09
2022-12-15T02:42:00.618Z,-4.10
2022-12-15T02:45:44.481Z,-4.07
2022-12-15T02:46:57.132Z,-4.04
2022-12-15T02:48:46.987Z,-3.93
2022-12-15T02:49:44.352Z,-4.02
2022-12-15T02:52:44.313Z,-3.92
2022-12-15T02:53:44.297Z,-4.02
2022-12-15T02:54:44.289Z,-4.04
2022-12-15T02:55:44.274Z,-3.95
2022-12-15T02:56:44.288Z,-3.99
2022-12-15T02:57:44.249Z,-3.99
2022-12-15T02:58:44.240Z,-4.12
2022-12-15T02:59:44.225Z,-4.07
2022-12-15T03:00:44.250Z,-4.06
2022-12-15T03:01:44.428Z,-4.07
2022-12-15T03:02:44.345Z,-4.13
2022-12-15T03:03:44.175Z,-4.13
2022-12-15T03:04:44.161Z,-4.17
2022-12-15T03:10:48.225Z,-4.06
2022-12-15T03:11:48.435Z,-4.13
2022-12-15T03:12:48.198Z,-4.10
2022-12-15T03:13:49.935Z,-4.17
2022-12-15T03:14:48.174Z,-4.21
2022-12-15T03:15:48.164Z,-4.21
2022-12-15T03:16:48.325Z,-4.24
2022-12-15T03:17:48.140Z,-4.24
2022-12-15T03:19:40.687Z,-4.25
2022-12-15T03:20:40.671Z,-4.22
2022-12-15T03:21:40.651Z,-4.24
2022-12-15T03:23:45.842Z,-4.14
2022-12-15T03:27:53.472Z,-4.28
2022-12-15T03:28:53.373Z,-4.30
2022-12-15T03:29:50.738Z,-4.25
2022-12-15T03:31:43.313Z,-4.21
2022-12-15T03:35:49.226Z,-4.39
2022-12-15T03:37:37.646Z,-4.35
2022-12-15T03:39:35.192Z,-4.31
2022-12-15T03:50:37.959Z,-4.43
2022-12-15T03:53:27.862Z,-4.46
2022-12-15T03:54:27.638Z,-4.46
2022-12-15T03:55:27.623Z,-4.42
2022-12-15T03:56:27.609Z,-4.43
2022-12-15T03:57:27.594Z,-4.45
2022-12-15T03:58:27.587Z,-4.39
2022-12-15T03:59:27.577Z,-4.42
2022-12-15T04:00:27.580Z,-4.43
2022-12-15T04:01:27.761Z,-4.41
2022-12-15T04:02:27.767Z,-4.34
2022-12-15T04:03:27.780Z,-4.42
2022-12-15T04:07:15.054Z,-4.41
2022-12-15T04:08:15.016Z,-4.39
2022-12-15T04:09:17.631Z,-4.35
2022-12-15T04:10:15.005Z,-4.42
2022-12-15T04:14:00.899Z,-4.38
2022-12-15T04:15:00.894Z,-4.30
2022-12-15T04:16:00.873Z,-4.30
2022-12-15T04:17:00.927Z,-4.30
2022-12-15T04:18:00.849Z,-4.25
2022-12-15T04:19:00.837Z,-4.30
2022-12-15T04:20:00.825Z,-4.30
2022-12-15T04:21:00.812Z,-4.32
2022-12-15T04:22:00.801Z,-4.25
2022-12-15T04:23:00.812Z,-4.22
2022-12-15T04:24:00.773Z,-4.17
2022-12-15T04:25:00.962Z,-4.21
2022-12-15T04:26:00.753Z,-4.21
2022-12-15T04:27:00.741Z,-4.24
2022-12-15T04:28:01.807Z,-4.24
2022-12-15T04:29:00.713Z,-4.28
2022-12-15T04:30:00.702Z,-4.21
2022-12-15T04:31:00.795Z,-4.22
2022-12-15T04:32:00.674Z,-4.25
2022-12-15T04:33:00.662Z,-4.25
2022-12-15T04:34:00.648Z,-4.16
2022-12-15T04:35:00.643Z,-4.21
2022-12-15T04:36:00.625Z,-4.24
2022-12-15T04:37:00.611Z,-4.09
2022-12-15T04:38:00.600Z,-4.12
2022-12-15T04:39:00.705Z,-4.13
2022-12-15T04:40:00.575Z,-4.21
2022-12-15T04:41:00.567Z,-4.17
2022-12-15T04:42:00.552Z,-4.10
2022-12-15T04:43:00.541Z,-4.12
2022-12-15T04:44:00.525Z,-4.14
2022-12-15T04:45:00.517Z,-4.07
2022-12-15T04:46:00.551Z,-4.10
2022-12-15T04:47:00.487Z,-4.04
2022-12-15T04:48:00.476Z,-4.06
2022-12-15T04:49:00.466Z,-4.03
2022-12-15T04:50:00.454Z,-4.06
2022-12-15T04:51:00.440Z,-4.03
2022-12-15T04:52:00.431Z,-3.92
2022-12-15T04:53:00.415Z,-4.03
2022-12-15T04:54:00.402Z,-3.96
2022-12-15T04:55:00.413Z,-3.99
2022-12-15T04:56:00.375Z,-3.99
2022-12-15T04:57:00.363Z,-3.99
2022-12-15T04:58:00.349Z,-3.98
2022-12-15T04:59:00.341Z,-4.06
2022-12-15T05:00:00.329Z,-3.99
2022-12-15T05:01:00.343Z,-4.03
2022-12-15T05:02:00.500Z,-4.04
2022-12-15T05:03:00.288Z,-4.04
2022-12-15T05:04:00.307Z,-3.99
2022-12-15T05:05:00.264Z,-3.95
2022-12-15T05:06:00.248Z,-3.96
2022-12-15T05:07:00.239Z,-3.91
2022-12-15T05:08:00.224Z,-4.03
2022-12-15T05:09:00.217Z,-4.03
2022-12-15T05:10:03.172Z,-4.06
2022-12-15T05:11:00.209Z,-3.95
2022-12-15T05:12:00.175Z,-4.03
2022-12-15T05:13:00.164Z,-3.96
2022-12-15T05:14:00.147Z,-3.92
2022-12-15T05:15:00.158Z,-4.02
2022-12-15T05:16:00.229Z,-3.91
2022-12-15T05:17:00.167Z,-3.95
2022-12-15T05:18:00.107Z,-4.03
2022-12-15T05:19:00.091Z,-3.98
2022-12-15T05:20:00.093Z,-3.89
2022-12-15T05:21:00.076Z,-3.88
2022-12-15T05:22:00.065Z,-3.88
2022-12-15T05:23:00.044Z,-3.89
2022-12-15T05:24:00.025Z,-3.89
2022-12-15T05:25:00.024Z,-3.89
2022-12-15T05:26:00.001Z,-3.92
2022-12-15T05:27:00.011Z,-3.92
2022-12-15T05:27:59.977Z,-3.92
2022-12-15T05:28:59.965Z,-3.92
2022-12-15T05:29:59.948Z,-3.93
2022-12-15T05:31:00.006Z,-3.92
2022-12-15T05:31:59.926Z,-3.88
2022-12-15T05:32:59.910Z,-3.88
2022-12-15T05:34:05.083Z,-3.92
2022-12-15T05:34:59.894Z,-3.86
2022-12-15T05:35:59.873Z,-3.95
2022-12-15T05:36:59.861Z,-3.92
2022-12-15T05:37:59.847Z,-3.89
2022-12-15T05:38:59.838Z,-3.93
2022-12-15T05:39:59.827Z,-3.86
2022-12-15T05:40:59.812Z,-3.92
2022-12-15T05:41:59.797Z,-3.88
2022-12-15T05:42:59.807Z,-3.93
2022-12-15T05:43:59.777Z,-3.91
2022-12-15T05:44:59.763Z,-3.91
2022-12-15T05:45:59.830Z,-3.92
2022-12-15T05:46:59.757Z,-3.92
2022-12-15T05:47:59.736Z,-3.91
2022-12-15T05:48:59.713Z,-3.91
2022-12-15T05:49:59.701Z,-3.95
2022-12-15T05:50:59.700Z,-3.91
2022-12-15T05:51:59.677Z,-3.92
2022-12-15T05:52:59.661Z,-3.86
2022-12-15T05:53:59.651Z,-3.86
2022-12-15T05:54:59.637Z,-3.88
2022-12-15T05:55:59.622Z,-3.85
2022-12-15T05:56:59.617Z,-3.91
2022-12-15T05:57:59.601Z,-3.89
2022-12-15T05:58:59.610Z,-3.89
2022-12-15T05:59:59.573Z,-3.91
2022-12-15T06:00:59.561Z,-3.77
2022-12-15T06:01:59.576Z,-3.80
2022-12-15T06:02:59.584Z,-3.75
2022-12-15T06:12:01.892Z,-3.78
2022-12-15T06:13:04.503Z,-3.77
2022-12-15T06:14:01.868Z,-3.75
2022-12-15T06:15:01.877Z,-3.82
2022-12-15T06:16:01.931Z,-3.78
2022-12-15T06:17:01.904Z,-3.82
2022-12-15T06:18:01.827Z,-3.78
2022-12-15T06:19:01.823Z,-3.77
2022-12-15T06:20:01.797Z,-3.77
2022-12-15T06:21:01.789Z,-3.85
2022-12-15T06:22:01.792Z,-3.92
2022-12-15T06:23:01.769Z,-3.93
2022-12-15T06:24:01.753Z,-3.95
2022-12-15T06:25:01.743Z,-3.99
2022-12-15T06:26:01.729Z,-3.99
2022-12-15T06:27:01.719Z,-4.07
2022-12-15T06:28:02.166Z,-4.02
2022-12-15T06:29:01.700Z,-4.02
2022-12-15T06:30:01.687Z,-4.12
2022-12-15T06:31:01.704Z,-4.13
2022-12-15T06:32:01.665Z,-4.13
2022-12-15T06:33:01.655Z,-4.12
2022-12-15T06:34:02.671Z,-4.04
2022-12-15T06:35:01.638Z,-4.07
2022-12-15T06:36:01.625Z,-4.10
2022-12-15T06:37:01.614Z,-4.14
2022-12-15T06:38:01.609Z,-4.12
2022-12-15T06:39:01.597Z,-4.13
2022-12-15T06:40:01.582Z,-4.09
2022-12-15T06:41:01.574Z,-4.12
2022-12-15T06:42:01.565Z,-4.07
2022-12-15T06:43:01.555Z,-4.07
2022-12-15T06:44:01.542Z,-4.06
2022-12-15T06:45:01.531Z,-4.12
2022-12-15T06:46:01.534Z,-4.09
2022-12-15T06:47:01.653Z,-4.10
2022-12-15T06:48:01.954Z,-3.99
2022-12-15T06:49:01.494Z,-3.98
2022-12-15T06:50:01.481Z,-4.04
2022-12-15T06:51:01.472Z,-3.93
2022-12-15T06:52:01.460Z,-3.88
2022-12-15T06:53:01.451Z,-3.89
2022-12-15T06:54:01.436Z,-3.83
2022-12-15T06:55:01.426Z,-3.93
2022-12-15T06:56:01.421Z,-3.82
2022-12-15T06:57:01.408Z,-3.78
2022-12-15T06:58:01.394Z,-3.82
2022-12-15T06:59:01.392Z,-3.85
2022-12-15T07:00:01.377Z,-3.83
2022-12-15T07:01:01.364Z,-3.85
2022-12-15T07:02:01.502Z,-3.80
2022-12-15T07:03:01.595Z,-3.82
2022-12-15T07:04:01.764Z,-3.77
2022-12-15T07:05:01.622Z,-3.78
2022-12-15T07:06:01.313Z,-3.83
2022-12-15T07:07:01.319Z,-3.78
2022-12-15T07:08:01.292Z,-3.82
2022-12-15T07:09:01.287Z,-3.78
2022-12-15T07:10:01.276Z,-3.75
2022-12-15T07:11:01.263Z,-3.75
2022-12-15T07:12:01.253Z,-3.78
2022-12-15T07:13:01.244Z,-3.72
2022-12-15T07:14:01.231Z,-3.72
2022-12-15T07:15:01.222Z,-3.72
2022-12-15T07:16:01.278Z,-3.75
2022-12-15T07:17:01.202Z,-3.72
2022-12-15T07:18:01.191Z,-3.78
2022-12-15T07:19:01.303Z,-3.78
2022-12-15T07:20:01.172Z,-3.80
2022-12-15T07:21:01.161Z,-3.77
2022-12-15T07:22:01.150Z,-3.74
2022-12-15T07:23:01.144Z,-3.77
2022-12-15T07:24:02.204Z,-3.70
2022-12-15T07:25:01.123Z,-3.72
2022-12-15T07:26:04.202Z,-3.69
2022-12-15T07:27:01.101Z,-3.69
2022-12-15T07:28:01.095Z,-3.70
2022-12-15T07:29:01.081Z,-3.66
2022-12-15T07:30:01.070Z,-3.63
2022-12-15T07:31:01.096Z,-3.66
2022-12-15T07:32:01.172Z,-3.55
2022-12-15T07:33:01.044Z,-3.55
2022-12-15T07:34:01.031Z,-3.55
2022-12-15T07:35:01.149Z,-3.63
2022-12-15T07:36:01.012Z,-3.58
2022-12-15T07:37:01.003Z,-3.67
2022-12-15T07:38:00.989Z,-3.51
2022-12-15T07:39:01.178Z,-3.46
2022-12-15T07:40:00.971Z,-3.48
2022-12-15T07:41:00.962Z,-3.46
2022-12-15T07:42:01.029Z,-3.51
2022-12-15T07:43:00.958Z,-3.45
2022-12-15T07:44:00.931Z,-3.41
2022-12-15T07:45:00.922Z,-3.37
2022-12-15T07:46:00.991Z,-3.38
2022-12-15T07:47:00.903Z,-3.40
2022-12-15T07:48:00.888Z,-3.35
2022-12-15T07:49:00.881Z,-3.45
2022-12-15T07:50:00.868Z,-3.38
2022-12-15T07:51:08.415Z,-3.38
2022-12-15T07:52:00.850Z,-3.37
2022-12-15T07:53:00.842Z,-3.35
2022-12-15T07:54:00.832Z,-3.38
2022-12-15T07:55:00.820Z,-3.37
2022-12-15T07:56:07.416Z,-3.38
2022-12-15T07:57:00.799Z,-3.33
2022-12-15T07:58:00.786Z,-3.31
2022-12-15T07:59:00.779Z,-3.30
2022-12-15T08:00:00.765Z,-3.33
2022-12-15T08:01:00.812Z,-3.40
2022-12-15T08:02:01.014Z,-3.31
2022-12-15T08:03:00.878Z,-3.22
2022-12-15T08:04:00.851Z,-3.23
2022-12-15T08:05:00.724Z,-3.22
2022-12-15T08:06:04.147Z,-3.20
2022-12-15T08:07:00.722Z,-3.23
2022-12-15T08:08:00.688Z,-3.25
2022-12-15T08:09:00.681Z,-3.31
2022-12-15T08:10:00.668Z,-3.23
2022-12-15T08:11:00.659Z,-3.23
2022-12-15T08:12:00.651Z,-3.28
2022-12-15T08:13:00.644Z,-3.20
2022-12-15T08:14:03.047Z,-3.19
2022-12-15T08:15:00.622Z,-3.25
2022-12-15T08:16:00.698Z,-3.30
2022-12-15T08:17:00.739Z,-3.23
2022-12-15T08:18:00.589Z,-3.20
2022-12-15T08:19:00.702Z,-3.22
2022-12-15T08:20:04.736Z,-3.31
2022-12-15T08:21:00.567Z,-3.25
2022-12-15T08:22:00.554Z,-3.31
2022-12-15T08:23:00.566Z,-3.23
2022-12-15T08:24:00.529Z,-3.22
2022-12-15T08:25:00.521Z,-3.19
2022-12-15T08:26:00.507Z,-3.20
2022-12-15T08:27:00.507Z,-3.15
2022-12-15T08:28:00.495Z,-3.23
2022-12-15T08:29:17.461Z,-3.20
2022-12-15T08:30:00.472Z,-3.23
2022-12-15T08:31:00.461Z,-3.23
2022-12-15T08:32:00.537Z,-3.23
2022-12-15T08:33:00.441Z,-3.23
2022-12-15T08:34:00.433Z,-3.17
2022-12-15T08:35:00.420Z,-3.20
2022-12-15T08:36:00.408Z,-3.22
2022-12-15T08:37:00.405Z,-3.27
2022-12-15T08:38:05.188Z,-3.17
2022-12-15T08:39:00.506Z,-3.16
2022-12-15T08:40:00.372Z,-3.23
2022-12-15T08:41:00.361Z,-3.22
2022-12-15T08:42:00.349Z,-3.30
2022-12-15T08:43:00.342Z,-3.22
2022-12-15T08:44:00.337Z,-3.22
2022-12-15T08:45:00.331Z,-3.17
2022-12-15T08:46:00.452Z,-3.23
2022-12-15T08:47:00.314Z,-3.15
2022-12-15T08:48:00.292Z,-3.19
2022-12-15T08:49:00.287Z,-3.17
2022-12-15T08:50:00.269Z,-3.20
2022-12-15T08:51:00.263Z,-3.22
2022-12-15T08:52:00.249Z,-3.15
2022-12-15T08:53:29.615Z,-3.10
2022-12-15T08:54:00.232Z,-3.12
2022-12-15T08:55:00.245Z,-3.12
2022-12-15T08:56:00.211Z,-3.12
2022-12-15T08:57:00.202Z,-3.10
2022-12-15T08:58:00.188Z,-3.12
2022-12-15T08:59:00.181Z,-3.10
2022-12-15T09:00:00.174Z,-3.19
2022-12-15T09:01:00.411Z,-3.10
2022-12-15T09:02:00.388Z,-3.17
2022-12-15T09:03:00.142Z,-3.12
2022-12-15T09:04:00.245Z,-3.13
2022-12-15T09:05:00.131Z,-3.15
2022-12-15T09:06:00.137Z,-3.15
2022-12-15T09:07:00.102Z,-3.13
2022-12-15T09:08:06.094Z,-3.15
2022-12-15T09:09:00.154Z,-3.15
2022-12-15T09:10:00.081Z,-3.15
2022-12-15T09:11:00.106Z,-3.12
2022-12-15T09:12:00.075Z,-3.12
2022-12-15T09:13:00.044Z,-3.12
2022-12-15T09:14:00.044Z,-3.15
2022-12-15T09:15:00.022Z,-3.13
2022-12-15T09:16:09.235Z,-3.04
2022-12-15T09:17:00.032Z,-3.04
2022-12-15T09:17:59.998Z,-3.06
2022-12-15T09:18:59.989Z,-3.07
2022-12-15T09:19:59.971Z,-3.06
2022-12-15T09:20:59.967Z,-3.15
2022-12-15T09:21:59.953Z,-3.13
2022-12-15T09:22:59.946Z,-3.16
2022-12-15T09:23:59.931Z,-3.09
2022-12-15T09:24:59.926Z,-3.13
2022-12-15T09:25:59.910Z,-3.09
2022-12-15T09:26:59.923Z,-3.16
2022-12-15T09:27:59.897Z,-3.09
2022-12-15T09:28:59.884Z,-3.04
2022-12-15T09:29:59.871Z,-3.13
2022-12-15T09:30:59.917Z,-3.09
2022-12-15T09:31:59.854Z,-3.17
2022-12-15T09:32:59.845Z,-3.13
2022-12-15T09:33:59.833Z,-3.13
2022-12-15T09:34:59.825Z,-3.07
2022-12-15T09:35:59.812Z,-3.07
2022-12-15T09:36:59.813Z,-3.10
2022-12-15T09:37:59.795Z,-3.07
2022-12-15T09:38:59.783Z,-3.02
2022-12-15T09:39:59.780Z,-3.12
2022-12-15T09:40:59.765Z,-2.99
2022-12-15T09:41:59.757Z,-3.04
2022-12-15T09:43:25.804Z,-2.88
2022-12-15T09:43:59.733Z,-2.97
2022-12-15T09:44:59.726Z,-2.89
2022-12-15T09:45:59.735Z,-2.95
2022-12-15T09:46:59.708Z,-2.95
2022-12-15T09:47:59.702Z,-2.86
2022-12-15T09:48:59.687Z,-2.89
2022-12-15T09:49:59.676Z,-2.94
2022-12-15T09:50:59.667Z,-2.91
2022-12-15T09:51:59.656Z,-2.98
2022-12-15T09:52:59.646Z,-2.91
2022-12-15T09:54:00.207Z,-2.98
2022-12-15T09:54:59.743Z,-2.95
2022-12-15T09:55:59.617Z,-2.97
2022-12-15T09:56:59.607Z,-3.01
2022-12-15T09:57:59.594Z,-2.98
2022-12-15T09:58:59.701Z,-3.04
2022-12-15T09:59:59.576Z,-3.01
2022-12-15T10:00:59.571Z,-3.15
2022-12-15T10:01:59.630Z,-3.12
2022-12-15T10:02:59.725Z,-3.13
2022-12-15T10:03:59.669Z,-3.23
2022-12-15T10:04:59.534Z,-3.19
2022-12-15T10:06:16.492Z,-3.16
2022-12-15T10:06:59.510Z,-3.12
2022-12-15T10:07:59.500Z,-3.12
2022-12-15T10:08:59.506Z,-3.09
2022-12-15T10:09:59.476Z,-3.19
2022-12-15T10:10:59.469Z,-3.04
2022-12-15T10:11:59.462Z,-3.13
2022-12-15T10:13:04.865Z,-3.01
2022-12-15T10:13:59.435Z,-3.07
2022-12-15T10:14:59.453Z,-3.04
2022-12-15T10:15:59.502Z,-3.01
2022-12-15T10:16:59.412Z,-3.09
2022-12-15T10:17:59.398Z,-3.04
2022-12-15T10:19:01.922Z,-3.02
2022-12-15T10:19:59.376Z,-2.97
2022-12-15T10:20:59.373Z,-3.06
2022-12-15T10:21:59.357Z,-3.04
2022-12-15T10:22:59.347Z,-3.01
2022-12-15T10:23:59.398Z,-2.94
2022-12-15T10:25:09.813Z,-2.92
2022-12-15T10:25:59.317Z,-2.94
2022-12-15T10:26:59.309Z,-3.01
2022-12-15T10:27:59.298Z,-2.94
2022-12-15T10:28:59.290Z,-3.01
2022-12-15T10:29:59.329Z,-2.99
2022-12-15T10:30:59.486Z,-3.02
2022-12-15T10:31:59.259Z,-3.02
2022-12-15T10:32:59.246Z,-3.12
2022-12-15T10:33:59.238Z,-3.07
2022-12-15T10:34:59.297Z,-3.13
2022-12-15T10:35:59.218Z,-3.09
2022-12-15T10:36:59.208Z,-2.97
2022-12-15T10:37:59.599Z,-2.94
2022-12-15T10:38:59.198Z,-3.06
2022-12-15T10:39:59.198Z,-3.09
2022-12-15T10:40:59.170Z,-2.91
2022-12-15T10:41:59.161Z,-2.94
2022-12-15T10:42:59.147Z,-2.92
2022-12-15T10:43:59.140Z,-2.89
2022-12-15T10:44:59.130Z,-2.86
2022-12-15T10:45:59.165Z,-2.97
2022-12-15T10:46:59.137Z,-2.95
2022-12-15T10:47:59.110Z,-2.91
2022-12-15T10:48:59.092Z,-2.88
2022-12-15T10:49:59.079Z,-2.88
2022-12-15T10:50:59.085Z,-2.80
2022-12-15T10:51:59.060Z,-2.83
2022-12-15T10:52:59.055Z,-2.71
2022-12-15T10:53:59.042Z,-2.69
2022-12-15T10:54:59.027Z,-2.63
2022-12-15T10:55:59.018Z,-2.60
2022-12-15T10:56:59.011Z,-2.62
2022-12-15T10:57:58.998Z,-2.65
2022-12-15T10:58:58.994Z,-2.69
2022-12-15T10:59:58.985Z,-2.63
2022-12-15T11:00:58.968Z,-2.66
2022-12-15T11:01:59.138Z,-2.55
2022-12-15T11:02:59.237Z,-2.56
2022-12-15T11:03:59.101Z,-2.55
2022-12-15T11:04:58.933Z,-2.66
2022-12-15T11:05:58.922Z,-2.74
2022-12-15T11:06:58.915Z,-2.66
2022-12-15T11:07:58.902Z,-2.71
2022-12-15T11:08:58.894Z,-2.71
2022-12-15T11:09:58.883Z,-2.88
2022-12-15T11:10:58.872Z,-2.84
2022-12-15T11:11:58.874Z,-2.88
2022-12-15T11:12:58.943Z,-2.86
2022-12-15T11:13:58.843Z,-2.92
2022-12-15T11:14:58.841Z,-2.91
2022-12-15T11:15:58.828Z,-2.92
2022-12-15T11:16:58.814Z,-2.89
2022-12-15T11:17:58.804Z,-2.92
2022-12-15T11:18:58.812Z,-2.95
2022-12-15T11:20:02.802Z,-2.86
2022-12-15T11:20:58.775Z,-2.89
2022-12-15T11:21:58.763Z,-2.88
2022-12-15T11:22:58.759Z,-2.89
2022-12-15T11:23:58.761Z,-2.88
2022-12-15T11:24:58.734Z,-2.91
2022-12-15T11:26:01.718Z,-2.88
2022-12-15T11:26:58.713Z,-2.92
2022-12-15T11:27:58.706Z,-2.91
2022-12-15T11:28:58.693Z,-2.92
2022-12-15T11:29:58.685Z,-2.91
2022-12-15T11:30:58.682Z,-2.91
2022-12-15T11:32:04.776Z,-2.92
2022-12-15T11:32:58.653Z,-2.84
2022-12-15T11:33:58.646Z,-2.91
2022-12-15T11:34:58.670Z,-2.88
2022-12-15T11:35:58.628Z,-2.89
2022-12-15T11:36:58.614Z,-2.91
2022-12-15T11:37:58.605Z,-2.91
2022-12-15T11:38:58.636Z,-2.77
2022-12-15T11:39:58.586Z,-2.80
2022-12-15T11:40:58.574Z,-2.94
2022-12-15T11:41:58.565Z,-2.91
2022-12-15T11:42:58.704Z,-2.80
2022-12-15T11:44:01.034Z,-2.83
2022-12-15T11:44:58.536Z,-2.86
2022-12-15T11:45:58.527Z,-2.81
2022-12-15T11:46:58.513Z,-2.91
2022-12-15T11:47:58.512Z,-2.88
2022-12-15T11:48:58.494Z,-2.95
2022-12-15T11:49:58.485Z,-2.86
2022-12-15T11:50:58.497Z,-2.92
2022-12-15T11:51:58.465Z,-2.91
2022-12-15T11:52:58.457Z,-2.88
2022-12-15T11:53:58.452Z,-2.74
2022-12-15T11:54:58.438Z,-2.86
2022-12-15T11:55:58.426Z,-2.80
2022-12-15T11:56:58.417Z,-2.92
2022-12-15T11:57:58.409Z,-2.92
2022-12-15T11:58:58.394Z,-2.84
2022-12-15T11:59:58.388Z,-2.91
2022-12-15T12:00:58.379Z,-2.88
2022-12-15T12:02:02.932Z,-2.91
2022-12-15T12:02:58.489Z,-2.94
2022-12-15T12:03:58.348Z,-2.89
2022-12-15T12:04:58.336Z,-2.92
2022-12-15T12:05:58.328Z,-2.89
2022-12-15T12:06:58.334Z,-2.80
2022-12-15T12:07:58.308Z,-2.80
2022-12-15T12:08:58.307Z,-2.88
2022-12-15T12:09:58.291Z,-2.81
2022-12-15T12:10:58.345Z,-2.81
2022-12-15T12:11:58.268Z,-2.84
2022-12-15T12:12:58.258Z,-2.81
2022-12-15T12:13:58.248Z,-2.73
2022-12-15T12:14:58.235Z,-2.63
2022-12-15T12:15:58.237Z,-2.71
2022-12-15T12:16:58.216Z,-2.63
2022-12-15T12:17:58.213Z,-2.73
2022-12-15T12:18:58.243Z,-2.73
2022-12-15T12:19:58.195Z,-2.66
2022-12-15T12:20:58.183Z,-2.69
2022-12-15T12:21:58.172Z,-2.69
2022-12-15T12:22:58.186Z,-2.77
2022-12-15T12:23:58.150Z,-2.69
2022-12-15T12:24:58.142Z,-2.77
2022-12-15T12:26:02.960Z,-2.70
2022-12-15T12:26:58.119Z,-2.70
2022-12-15T12:27:58.111Z,-2.66
2022-12-15T12:28:58.117Z,-2.71
2022-12-15T12:29:58.094Z,-2.66
2022-12-15T12:30:58.080Z,-2.56
2022-12-15T12:32:04.042Z,-2.71
2022-12-15T12:32:58.062Z,-2.63
2022-12-15T12:33:58.055Z,-2.62
2022-12-15T12:35:31.772Z,-2.66
2022-12-15T12:35:58.036Z,-2.60
2022-12-15T12:36:58.025Z,-2.65
2022-12-15T12:38:58.086Z,-2.60
2022-12-15T12:39:57.997Z,-2.60
2022-12-15T12:40:57.983Z,-2.58
2022-12-15T12:41:57.974Z,-2.69
2022-12-15T12:42:57.964Z,-2.63
2022-12-15T12:43:57.955Z,-2.69
2022-12-15T12:44:57.947Z,-2.65
2022-12-15T12:45:57.940Z,-2.63
2022-12-15T12:46:57.927Z,-2.62
2022-12-15T12:47:58.369Z,-2.58
2022-12-15T12:48:57.909Z,-2.56
2022-12-15T12:49:57.906Z,-2.58
2022-12-15T12:50:57.885Z,-2.55
2022-12-15T12:51:57.882Z,-2.55
2022-12-15T12:52:57.870Z,-2.55
2022-12-15T12:53:57.863Z,-2.47
2022-12-15T12:54:57.881Z,-2.37
2022-12-15T12:55:57.842Z,-2.23
2022-12-15T12:56:57.833Z,-2.28
2022-12-15T12:57:57.821Z,-2.18
2022-12-15T12:58:57.810Z,-2.19
2022-12-15T12:59:57.804Z,-2.16
2022-12-15T13:00:57.891Z,-2.22
2022-12-15T13:01:57.977Z,-2.19
2022-12-15T13:02:57.851Z,-2.18
2022-12-15T13:03:57.764Z,-2.21
2022-12-15T13:04:57.758Z,-2.12
2022-12-15T13:05:57.743Z,-2.21
2022-12-15T13:06:57.733Z,-2.23
2022-12-15T13:07:57.728Z,-2.23
2022-12-15T13:08:57.715Z,-2.18
2022-12-15T13:09:57.708Z,-2.25
2022-12-15T13:10:57.761Z,-2.18
2022-12-15T13:11:57.688Z,-2.21
2022-12-15T13:12:57.683Z,-2.22
2022-12-15T13:13:57.670Z,-2.16
2022-12-15T13:14:57.659Z,-2.18
2022-12-15T13:15:57.651Z,-2.28
2022-12-15T13:17:25.031Z,-2.12
2022-12-15T13:17:57.631Z,-2.21
2022-12-15T13:18:57.622Z,-2.15
2022-12-15T13:19:57.612Z,-2.12
2022-12-15T13:20:57.601Z,-2.05
2022-12-15T13:21:57.592Z,-2.16
2022-12-15T13:22:57.580Z,-2.16
2022-12-15T13:23:57.574Z,-2.15
2022-12-15T13:24:57.569Z,-2.13
2022-12-15T13:25:57.557Z,-2.18
2022-12-15T13:26:57.587Z,-2.08
2022-12-15T13:27:57.554Z,-2.13
2022-12-15T13:28:57.527Z,-2.13
2022-12-15T13:29:57.519Z,-2.10
2022-12-15T13:31:02.819Z,-2.13
2022-12-15T13:31:57.601Z,-2.16
2022-12-15T13:32:57.486Z,-2.18
2022-12-15T13:33:57.483Z,-2.10
2022-12-15T13:34:57.467Z,-2.15
2022-12-15T13:35:57.461Z,-2.08
2022-12-15T13:36:57.451Z,-2.04
2022-12-15T13:37:57.445Z,-2.13
2022-12-15T13:38:57.433Z,-2.08
2022-12-15T13:39:57.448Z,-2.02
2022-12-15T13:40:57.413Z,-2.02
2022-12-15T13:42:58.819Z,-2.04
2022-12-15T13:43:57.385Z,-2.02